Custer, WA (98240)

8:28 PM PDT on August 31, 2015 (GMT -0700)
APRSWXNET | | Change Station
CLOSE
Current Station
Personal Weather Station
Location: Ferndale, WA
Elevation: 62 ft
Nearby Weather Stations

Elev 62 ft 48.90 °N, 122.58 °W | Updated 33 minutes ago

Overcast
Overcast
59 °F
Feels Like 59 °F
N
2
Wind Variable Wind from SSW
Gusts 6.0 mph

Today
High -- | Low -- °F
--% Chance of Precip.
Yesterday
High -- | Low -- °F
Precip. -- in
6:25 AM 7:55 PM
Waning Gibbous, 92% visible
Pressure 29.84 in
Visibility 7.0 miles
Clouds Mostly Cloudy 1600 ft
Overcast 2000 ft
Dew Point 58 °F
Humidity 96%
Rainfall in
Snow Depth Not available.
UV 0 out of 12
Pollen .50 out of 12
Air Quality Not available.
Flu Activity Not available.
METAR KBLI 010253Z 15013G19KT 7SM BKN016 OVC020 17/14 A2982 RMK AO2 SLP104 60003 T01720139 58017 $
Pressure 29.84 in
Visibility 7.0 miles
Clouds Mostly Cloudy 1600 ft
Overcast 2000 ft
Dew Point 58 °F
Humidity 96%
Rainfall in
Snow Depth Not available.
UV 0 out of 12
Pollen .50 out of 12
Air Quality Not available.
Flu Activity Not available.
METAR KBLI 010253Z 15013G19KT 7SM BKN016 OVC020 17/14 A2982 RMK AO2 SLP104 60003 T01720139 58017 $

10-Day Weather Forecast

×

Almanac

Astronomy

Aug. 31, 2015 Rise Set
Actual Time
Civil Twilight
Nautical Twilight
Astronomical Twilight
Moon
Length of Visible Light
Length of Day
Tomorrow will be .
, % of the Moon is Illuminated

Today's Extremes

State Highs State Lows

Community

WunderPhotos

Upload Photos

1,851,474 photos uploaded!

WunderBlogs® & News

Nearby

Air Quality

  Air Quality AQ Index Pollutant
Not available.

Snow Depth

Station Depth Elevation

Earthquake Activity

City Distance Mag. Time & Date
Minimum magnitude displayed is 2.5.

Coastal Water Temperatures

Place Temperature

Stations

Nearby Weather Stations

Station Location Temp. Windchill Dew Point Humidity Wind Precip. Elev Updated Type